Time;durP1;ratioP1;P1;durP2;ratioP2;P2;SDS_P1;SDS_P2;PMS_P1;PMS_P2;Temp;Humidity;BMP_temperature;BMP_pressure;BME280_temperature;BME280_humidity;BME280_pressure;Samples;Min_cycle;Max_cycle;Signal;HPM_P1;HPM_P2
2022/06/04 00:01:43;;;;;;;13.85;6.18;;;11.70;99.90;;;;;;5055240;28;20060;-67
2022/06/04 00:04:12;;;;;;;14.77;6.20;;;11.60;99.90;;;;;;5073165;28;20041;-67
2022/06/04 00:06:37;;;;;;;12.27;6.68;;;11.80;99.90;;;;;;5073017;28;20044;-67
2022/06/04 00:09:06;;;;;;;13.55;7.05;;;11.70;99.90;;;;;;5072557;28;20508;-67
2022/06/04 00:17:02;;;;;;;15.77;6.95;;;11.80;99.90;;;;;;5072823;28;20079;-68
2022/06/04 00:19:28;;;;;;;10.05;6.65;;;;;;;;;;5054285;28;20443;-67
2022/06/04 00:21:54;;;;;;;12.65;7.10;;;;;;;;;;5054274;28;20068;-67
2022/06/04 00:24:20;;;;;;;22.17;7.97;;;;;;;;;;5072491;28;20068;-67
2022/06/04 00:26:46;;;;;;;12.93;7.22;;;;;;;;;;5072733;28;20135;-67
2022/06/04 00:29:12;;;;;;;12.57;7.38;;;;;;;;;;5071808;28;20089;-67
2022/06/04 00:31:38;;;;;;;15.23;7.28;;;;;;;;;;5054442;28;20123;-68
2022/06/04 00:34:05;;;;;;;15.13;8.02;;;;;;;;;;5054631;28;20479;-68
2022/06/04 00:36:33;;;;;;;16.10;7.32;;;11.30;99.90;;;;;;5072624;28;20043;-67
2022/06/04 00:38:59;;;;;;;13.23;7.80;;;11.40;99.90;;;;;;5054262;28;20048;-67
2022/06/04 00:42:01;;;;;;;13.57;7.88;;;11.30;99.90;;;;;;5054493;28;20051;-68
2022/06/04 00:44:29;;;;;;;15.73;7.50;;;11.20;99.90;;;;;;5058626;28;20090;-67
2022/06/04 00:46:55;;;;;;;14.48;8.02;;;;;;;;;;5054382;28;20040;-67
2022/06/04 00:49:21;;;;;;;15.32;8.50;;;;;;;;;;5071614;28;20082;-67
2022/06/04 00:51:50;;;;;;;11.35;7.75;;;11.30;99.90;;;;;;5054093;28;20048;-67
2022/06/04 00:54:16;;;;;;;19.40;8.32;;;11.30;99.90;;;;;;5054252;28;20505;-66
2022/06/04 00:56:41;;;;;;;13.40;7.90;;;11.30;99.90;;;;;;5071906;28;20619;-67
2022/06/04 00:59:36;;;;;;;14.45;8.60;;;11.20;99.90;;;;;;5036629;28;20048;-65
2022/06/04 01:02:25;;;;;;;15.68;7.90;;;11.20;99.90;;;;;;5054032;28;20037;-67
2022/06/04 01:05:17;;;;;;;13.52;7.80;;;11.30;99.90;;;;;;5071788;28;20032;-67
2022/06/04 01:08:11;;;;;;;15.30;7.80;;;11.20;99.90;;;;;;5071836;28;20486;-67
2022/06/04 01:10:55;;;;;;;16.67;8.30;;;11.00;99.90;;;;;;5053473;28;20390;-67
2022/06/04 01:13:30;;;;;;;18.08;9.13;;;11.20;99.90;;;;;;5071690;28;20036;-67
2022/06/04 01:16:17;;;;;;;20.45;9.55;;;11.10;99.90;;;;;;5053752;28;20040;-67
2022/06/04 01:19:07;;;;;;;15.32;8.25;;;11.30;99.90;;;;;;5071691;28;20387;-67
2022/06/04 01:22:14;;;;;;;19.08;9.63;;;11.20;99.90;;;;;;5053634;28;20040;-67
2022/06/04 01:24:52;;;;;;;17.52;8.85;;;11.30;99.90;;;;;;5053626;28;20494;-67
2022/06/04 01:27:28;;;;;;;15.95;8.10;;;11.30;99.90;;;;;;5071657;28;20143;-67
2022/06/04 01:30:03;;;;;;;20.13;8.63;;;11.40;99.90;;;;;;5070761;28;20486;-67
2022/06/04 01:32:42;;;;;;;18.88;8.48;;;11.30;99.90;;;;;;5071744;28;20338;-67
2022/06/04 01:35:19;;;;;;;12.15;7.38;;;11.30;99.90;;;;;;5074383;22;20080;-69
2022/06/04 01:37:45;;;;;;;15.05;8.00;;;;;;;;;;5051897;28;20044;-68
2022/06/04 01:43:03;;;;;;;20.27;8.07;;;11.20;99.90;;;;;;5051863;28;20076;-68
2022/06/04 01:45:31;;;;;;;15.23;6.90;;;11.10;99.90;;;;;;5050642;28;20402;-69
2022/06/04 01:47:59;;;;;;;18.98;8.27;;;11.10;99.90;;;;;;5034263;28;20376;-68
2022/06/04 01:50:32;;;;;;;22.23;9.63;;;11.10;99.90;;;;;;5050954;28;20094;-68
2022/06/04 01:53:00;;;;;;;19.48;8.50;;;11.10;99.90;;;;;;5050571;28;20575;-68
2022/06/04 01:55:36;;;;;;;17.48;7.78;;;11.00;99.90;;;;;;5051734;28;20049;-68
2022/06/04 01:58:06;;;;;;;20.27;7.50;;;11.00;99.90;;;;;;5050519;28;20087;-69
2022/06/04 02:00:37;;;;;;;17.50;8.50;;;11.00;99.90;;;;;;5049507;28;20430;-69
2022/06/04 02:03:17;;;;;;;16.85;7.47;;;11.10;99.90;;;;;;5050469;28;20037;-68
2022/06/04 02:05:55;;;;;;;14.27;7.10;;;11.10;99.90;;;;;;5051710;28;20033;-69
2022/06/04 02:08:27;;;;;;;17.58;7.47;;;11.10;99.90;;;;;;5051406;28;20418;-69
2022/06/04 02:11:05;;;;;;;15.05;6.93;;;10.90;99.90;;;;;;5032881;28;20037;-68
2022/06/04 02:13:31;;;;;;;12.40;7.35;;;;;;;;;;5051377;28;20058;-68
2022/06/04 02:16:07;;;;;;;17.35;7.10;;;10.90;99.90;;;;;;5033528;28;20124;-69
2022/06/04 02:18:33;;;;;;;15.95;7.40;;;;;;;;;;5050202;28;20087;-68
2022/06/04 02:20:59;;;;;;;13.52;6.68;;;;;;;;;;5032941;28;20041;-68
2022/06/04 02:23:25;;;;;;;12.38;7.28;;;10.80;99.90;;;;;;5051373;28;20049;-68
2022/06/04 02:25:51;;;;;;;12.88;7.10;;;11.00;99.90;;;;;;5050066;28;20048;-69
2022/06/04 02:28:17;;;;;;;16.92;7.40;;;10.90;99.90;;;;;;5049897;28;20041;-69
2022/06/04 02:31:02;;;;;;;11.35;7.07;;;10.80;99.90;;;;;;5049291;28;20047;-68
2022/06/04 02:33:52;;;;;;;10.93;6.63;;;10.80;99.90;;;;;;5051398;28;20056;-68
2022/06/04 02:36:34;;;;;;;14.95;6.95;;;11.00;99.90;;;;;;5033507;28;20041;-69
2022/06/04 02:39:35;;;;;;;18.95;7.28;;;10.90;99.90;;;;;;5049208;28;20080;-68
2022/06/04 02:42:11;;;;;;;13.77;7.68;;;11.00;99.90;;;;;;5049076;28;20094;-68
2022/06/04 02:45:04;;;;;;;13.95;7.82;;;11.00;99.90;;;;;;5033182;28;20063;-68
2022/06/04 02:47:35;;;;;;;10.98;6.72;;;10.80;99.90;;;;;;5053810;28;20028;-68
2022/06/04 02:50:24;;;;;;;15.52;7.68;;;10.80;99.90;;;;;;5052938;28;20091;-68
2022/06/04 02:52:53;;;;;;;15.32;7.90;;;10.80;99.90;;;;;;5054958;28;20045;-68
2022/06/04 02:55:26;;;;;;;17.40;7.85;;;10.70;99.90;;;;;;5054565;28;20045;-69
2022/06/04 02:57:54;;;;;;;11.63;6.88;;;10.80;99.90;;;;;;5053477;28;20052;-69
2022/06/04 03:00:23;;;;;;;19.30;7.32;;;10.80;99.90;;;;;;5053899;28;20498;-69
2022/06/04 03:02:49;;;;;;;16.65;8.07;;;10.80;99.90;;;;;;5053370;28;20072;-69
2022/06/04 03:05:24;;;;;;;15.27;7.50;;;10.80;99.90;;;;;;5053348;28;20040;-68
2022/06/04 03:07:54;;;;;;;11.90;7.43;;;10.80;99.90;;;;;;5053499;28;20499;-69
2022/06/04 03:10:26;;;;;;;11.82;6.97;;;10.80;99.90;;;;;;5052686;28;20503;-69
2022/06/04 03:12:52;;;;;;;14.70;7.05;;;10.70;99.90;;;;;;5036953;28;20076;-69
2022/06/04 03:15:19;;;;;;;9.40;6.43;;;10.70;99.90;;;;;;5036573;28;20099;-69
2022/06/04 03:17:46;;;;;;;12.32;7.13;;;10.80;99.90;;;;;;5053472;28;20044;-69
2022/06/04 03:20:15;;;;;;;11.32;7.25;;;10.70;99.90;;;;;;5053436;28;20040;-69
2022/06/04 03:22:40;;;;;;;10.23;7.05;;;10.60;99.90;;;;;;5053243;28;20036;-68
2022/06/04 03:25:06;;;;;;;12.35;6.70;;;10.50;99.90;;;;;;5052968;28;20044;-68
2022/06/04 03:27:32;;;;;;;11.35;6.90;;;10.60;99.90;;;;;;5052925;28;20037;-68
2022/06/04 03:29:58;;;;;;;13.10;6.47;;;10.60;99.90;;;;;;5053384;28;20048;-68
2022/06/04 03:32:23;;;;;;;13.68;6.78;;;10.50;99.90;;;;;;5052913;28;20498;-68
2022/06/04 03:34:49;;;;;;;11.68;6.55;;;10.60;99.90;;;;;;5052838;28;20153;-68
2022/06/04 03:37:15;;;;;;;13.65;6.38;;;10.70;99.90;;;;;;5052690;28;20529;-69
2022/06/04 03:39:41;;;;;;;11.55;6.97;;;10.60;99.90;;;;;;5035101;28;20037;-68
2022/06/04 03:42:06;;;;;;;14.75;6.88;;;10.60;99.90;;;;;;5052705;28;20044;-69
2022/06/04 03:44:32;;;;;;;12.23;6.13;;;10.40;99.90;;;;;;5052775;28;20417;-68
2022/06/04 03:46:58;;;;;;;9.27;6.05;;;10.60;99.90;;;;;;5052720;28;20073;-68
2022/06/04 03:49:24;;;;;;;14.32;6.70;;;;;;;;;;5052101;28;20399;-69
2022/06/04 03:51:50;;;;;;;9.48;5.90;;;10.70;99.90;;;;;;5052110;28;20056;-68
2022/06/04 03:54:16;;;;;;;12.32;6.90;;;;;;;;;;5053857;28;20072;-68
2022/06/04 03:56:42;;;;;;;12.65;6.72;;;10.60;99.90;;;;;;5052889;28;20042;-68
2022/06/04 03:59:07;;;;;;;14.48;6.68;;;;;;;;;;5051886;28;20521;-68
2022/06/04 04:01:34;;;;;;;9.55;6.28;;;;;;;;;;5035584;28;20036;-68
2022/06/04 04:04:01;;;;;;;17.33;7.43;;;10.60;99.90;;;;;;5053451;28;20056;-69
2022/06/04 04:06:33;;;;;;;9.07;5.88;;;10.70;99.90;;;;;;5052173;28;20086;-68
2022/06/04 04:08:58;;;;;;;10.93;6.85;;;10.90;99.90;;;;;;5035039;28;20045;-68
2022/06/04 04:11:26;;;;;;;12.98;6.30;;;10.80;99.90;;;;;;5053303;28;20151;-68
2022/06/04 04:13:53;;;;;;;11.15;6.22;;;10.90;99.90;;;;;;5052063;28;20048;-68
2022/06/04 04:16:22;;;;;;;15.32;6.18;;;10.90;99.90;;;;;;5053271;28;20036;-69
2022/06/04 04:18:47;;;;;;;11.68;6.72;;;10.80;99.90;;;;;;5052948;28;20039;-68
2022/06/04 04:21:19;;;;;;;13.48;6.13;;;10.80;99.90;;;;;;5051349;28;20415;-69
2022/06/04 04:23:45;;;;;;;12.57;6.38;;;;;;;;;;5052156;28;20174;-68
2022/06/04 04:26:14;;;;;;;11.40;6.13;;;10.90;99.90;;;;;;5034990;28;20124;-69
2022/06/04 04:28:40;;;;;;;8.75;5.40;;;10.80;99.90;;;;;;5035122;28;20040;-68
2022/06/04 04:31:18;;;;;;;13.00;5.78;;;11.00;99.90;;;;;;5051196;28;20049;-69
2022/06/04 04:33:44;;;;;;;8.80;5.57;;;11.00;99.90;;;;;;5051761;28;20041;-68
2022/06/04 04:36:10;;;;;;;10.63;5.70;;;11.10;99.90;;;;;;5034713;28;20090;-69
2022/06/04 04:38:36;;;;;;;13.55;6.35;;;11.10;99.90;;;;;;5051782;28;20430;-69
2022/06/04 04:41:02;;;;;;;8.23;5.53;;;11.10;99.90;;;;;;5050687;28;20037;-69
2022/06/04 04:43:28;;;;;;;8.70;5.30;;;;;;;;;;5052804;28;20039;-68
2022/06/04 04:46:02;;;;;;;12.02;5.68;;;9.40;99.90;;;;;;5051263;28;20127;-68
2022/06/04 04:48:28;;;;;;;8.93;5.85;;;;;;;;;;5052614;28;20495;-69
2022/06/04 04:50:54;;;;;;;10.93;6.05;;;;;;;;;;5050480;28;20457;-68
2022/06/04 04:53:20;;;;;;;12.55;5.57;;;;;;;;;;5051202;28;20040;-68
2022/06/04 04:55:47;;;;;;;10.55;5.70;;;11.40;99.90;;;;;;5051088;28;20052;-69
2022/06/04 04:58:13;;;;;;;9.00;5.07;;;11.60;99.90;;;;;;5051305;28;20500;-68
2022/06/04 05:00:39;;;;;;;10.55;5.55;;;11.60;99.90;;;;;;5052037;28;20120;-68
2022/06/04 05:03:05;;;;;;;14.88;5.03;;;;;;;;;;5051040;28;20068;-68
2022/06/04 05:05:31;;;;;;;11.02;5.35;;;;;;;;;;5052270;28;20052;-68
2022/06/04 05:07:57;;;;;;;12.88;5.65;;;11.70;99.90;;;;;;5050673;28;20044;-69
2022/06/04 05:10:24;;;;;;;7.55;4.80;;;;;;;;;;5051413;28;20454;-69
2022/06/04 05:12:54;;;;;;;8.50;4.68;;;11.80;99.90;;;;;;5051103;28;20080;-68
2022/06/04 05:15:21;;;;;;;11.35;5.13;;;;;;;;;;5052314;28;20469;-69
2022/06/04 05:17:46;;;;;;;7.15;5.03;;;11.90;99.90;;;;;;5052184;28;20123;-68
2022/06/04 05:20:13;;;;;;;7.32;4.45;;;12.10;99.90;;;;;;5051347;28;20167;-67
2022/06/04 05:22:38;;;;;;;7.85;4.88;;;12.30;99.90;;;;;;5050957;28;20063;-69
2022/06/04 05:25:05;;;;;;;9.95;5.00;;;12.40;99.90;;;;;;5052046;28;20111;-68
2022/06/04 05:27:30;;;;;;;10.00;5.53;;;12.40;99.90;;;;;;5050608;28;20552;-69
2022/06/04 05:29:56;;;;;;;9.73;5.78;;;;;;;;;;5050326;28;20049;-69
2022/06/04 05:32:23;;;;;;;11.82;5.68;;;;;;;;;;5033952;28;20037;-68
2022/06/04 05:34:48;;;;;;;13.18;6.07;;;;;;;;;;5051646;28;20571;-69
2022/06/04 05:37:15;;;;;;;11.00;4.95;;;;;;;;;;5050436;28;20163;-69
2022/06/04 05:39:40;;;;;;;7.20;4.88;;;;;;;;;;5049719;28;20236;-69
2022/06/04 05:42:07;;;;;;;8.32;5.10;;;12.70;99.90;;;;;;5050396;28;20120;-69
2022/06/04 05:44:33;;;;;;;8.38;4.45;;;;;;;;;;5050328;28;20043;-69
2022/06/04 05:46:59;;;;;;;6.63;5.20;;;12.70;99.90;;;;;;5050500;28;20076;-69
2022/06/04 05:49:25;;;;;;;8.77;5.03;;;12.70;99.90;;;;;;5049671;28;20087;-69
2022/06/04 05:51:51;;;;;;;7.45;4.68;;;12.90;99.90;;;;;;5051632;28;20502;-69
2022/06/04 05:54:18;;;;;;;10.05;4.07;;;13.00;99.90;;;;;;5033644;28;20072;-69
2022/06/04 05:56:46;;;;;;;11.38;5.40;;;13.00;99.90;;;;;;5050264;28;20075;-68
2022/06/04 05:59:15;;;;;;;9.93;6.35;;;13.00;99.90;;;;;;5050953;28;20053;-68
2022/06/04 06:01:42;;;;;;;12.32;6.50;;;13.30;99.90;;;;;;5050612;28;20083;-68
2022/06/04 06:04:11;;;;;;;9.85;5.15;;;13.30;99.90;;;;;;5051460;28;20028;-69
2022/06/04 06:06:42;;;;;;;9.95;5.93;;;13.60;99.90;;;;;;5050201;28;20037;-69
2022/06/04 06:09:11;;;;;;;8.40;4.60;;;13.40;99.90;;;;;;5032752;28;20524;-67
2022/06/04 06:11:37;;;;;;;7.30;4.45;;;13.70;99.90;;;;;;5033567;28;20037;-69
2022/06/04 06:14:03;;;;;;;7.50;4.50;;;13.70;99.90;;;;;;5051291;28;20483;-69
2022/06/04 06:16:31;;;;;;;8.57;5.13;;;13.60;99.90;;;;;;5050149;28;20048;-68
2022/06/04 06:18:58;;;;;;;11.95;5.90;;;14.00;99.90;;;;;;5049747;28;20052;-69
2022/06/04 06:21:26;;;;;;;11.18;5.47;;;14.00;99.90;;;;;;5052198;28;20068;-69
2022/06/04 06:23:53;;;;;;;9.43;6.10;;;14.10;99.90;;;;;;5054300;28;20033;-68
2022/06/04 06:26:22;;;;;;;8.68;4.50;;;14.30;99.90;;;;;;5055509;28;20098;-69
2022/06/04 06:28:48;;;;;;;8.48;4.43;;;14.10;99.90;;;;;;5037501;28;20033;-69
2022/06/04 06:31:18;;;;;;;11.43;4.70;;;14.30;99.90;;;;;;5053305;28;20064;-69
2022/06/04 06:33:44;;;;;;;6.63;4.50;;;14.30;99.90;;;;;;5053805;28;20037;-69
2022/06/04 06:36:12;;;;;;;6.60;4.63;;;14.20;99.90;;;;;;5054803;28;20043;-69
2022/06/04 06:38:38;;;;;;;7.53;4.63;;;;;;;;;;5055201;28;20041;-70
2022/06/04 06:41:05;;;;;;;6.90;4.45;;;14.00;99.90;;;;;;5052940;28;20076;-69
2022/06/04 06:46:03;;;;;;;6.53;4.60;;;14.20;99.90;;;;;;5053600;28;20044;-69
2022/06/04 06:48:29;;;;;;;9.20;4.97;;;14.20;99.90;;;;;;5054867;28;20483;-70
2022/06/04 06:50:54;;;;;;;5.57;4.28;;;14.40;99.90;;;;;;5036460;28;20047;-70
2022/06/04 06:53:20;;;;;;;14.18;5.53;;;14.40;99.90;;;;;;5055055;28;20411;-69
2022/06/04 06:55:46;;;;;;;7.53;4.75;;;;;;;;;;5053420;28;20045;-69
2022/06/04 06:58:12;;;;;;;5.55;4.18;;;15.00;99.90;;;;;;5053687;28;20073;-69
2022/06/04 07:00:38;;;;;;;8.10;4.68;;;15.20;99.90;;;;;;5052564;28;20041;-69
2022/06/04 07:03:03;;;;;;;9.98;5.15;;;15.40;99.90;;;;;;5053339;28;20040;-69
2022/06/04 07:05:30;;;;;;;5.45;3.75;;;;;;;;;;5036812;28;20048;-69
2022/06/04 07:07:56;;;;;;;7.55;4.05;;;;;;;;;;5054753;28;20072;-69
2022/06/04 07:10:22;;;;;;;6.00;4.00;;;15.80;99.90;;;;;;5052691;28;20099;-69
2022/06/04 07:12:47;;;;;;;8.48;4.80;;;15.80;99.90;;;;;;5053213;28;20063;-70
2022/06/04 07:15:13;;;;;;;5.25;3.92;;;15.90;99.90;;;;;;5054442;28;20083;-70
2022/06/04 07:17:39;;;;;;;4.55;3.85;;;15.90;99.90;;;;;;5053444;28;20114;-70
2022/06/04 07:20:05;;;;;;;7.65;4.38;;;15.90;99.90;;;;;;5053411;28;20098;-69
2022/06/04 07:22:31;;;;;;;6.88;4.50;;;15.90;99.90;;;;;;5036559;28;20040;-69
2022/06/04 07:24:57;;;;;;;7.90;4.50;;;15.60;99.90;;;;;;5053676;28;20030;-71
2022/06/04 07:27:23;;;;;;;9.68;4.07;;;15.50;99.90;;;;;;5035079;28;20036;-70
2022/06/04 07:29:49;;;;;;;6.75;4.50;;;15.90;99.90;;;;;;5051068;28;20041;-70
2022/06/04 07:32:14;;;;;;;5.97;4.05;;;15.90;99.90;;;;;;5034825;28;20049;-70
2022/06/04 07:34:40;;;;;;;6.40;4.47;;;15.70;99.90;;;;;;5053885;28;20124;-70
2022/06/04 07:37:07;;;;;;;8.32;4.25;;;15.50;99.90;;;;;;5054176;28;20045;-70
2022/06/04 07:39:32;;;;;;;10.75;5.13;;;15.70;99.90;;;;;;5053344;28;20052;-70
2022/06/04 07:41:58;;;;;;;8.23;4.57;;;16.00;99.90;;;;;;5032240;28;20552;-70
2022/06/04 07:44:26;;;;;;;8.00;4.55;;;15.90;99.90;;;;;;5050492;28;20094;-70
2022/06/04 07:46:53;;;;;;;5.72;4.30;;;16.20;99.90;;;;;;5057411;28;20041;-71
2022/06/04 07:49:20;;;;;;;6.38;4.10;;;16.40;99.90;;;;;;5043952;28;20049;-70
2022/06/04 07:51:47;;;;;;;7.25;4.60;;;16.10;99.90;;;;;;5053816;28;20054;-69
2022/06/04 07:54:14;;;;;;;7.25;4.13;;;16.20;99.90;;;;;;5048199;28;20068;-70
2022/06/04 07:56:40;;;;;;;6.13;4.35;;;16.30;99.90;;;;;;5047462;28;20132;-70
2022/06/04 07:59:08;;;;;;;5.63;4.18;;;16.20;99.90;;;;;;5035043;28;20032;-69
2022/06/04 08:01:34;;;;;;;11.60;4.45;;;16.40;99.90;;;;;;5061064;28;20037;-70
2022/06/04 08:04:00;;;;;;;7.55;3.97;;;;;;;;;;5051589;28;20033;-70
2022/06/04 08:06:26;;;;;;;8.00;4.50;;;16.50;99.90;;;;;;5045911;28;20076;-70
2022/06/04 08:08:57;;;;;;;8.18;4.68;;;16.30;99.90;;;;;;5047599;28;20061;-69
2022/06/04 08:11:34;;;;;;;6.10;4.30;;;16.30;99.90;;;;;;5049454;28;20426;-70
2022/06/04 08:14:11;;;;;;;6.63;3.63;;;16.70;99.90;;;;;;5048499;28;20025;-70
2022/06/04 08:16:41;;;;;;;5.00;4.00;;;16.80;99.90;;;;;;5051336;28;20090;-71
2022/06/04 08:19:08;;;;;;;12.50;5.10;;;17.00;99.90;;;;;;5051403;28;20494;-70
2022/06/04 08:21:35;;;;;;;7.90;3.65;;;17.40;99.90;;;;;;5053289;28;20037;-71
2022/06/04 08:24:01;;;;;;;9.70;4.10;;;17.40;99.90;;;;;;5051739;28;20067;-70
2022/06/04 08:26:27;;;;;;;7.88;4.68;;;17.10;99.90;;;;;;5068328;28;20033;-71
2022/06/04 08:28:53;;;;;;;7.25;4.25;;;17.00;99.90;;;;;;5051294;28;20033;-69
2022/06/04 08:31:19;;;;;;;6.93;4.18;;;16.40;99.90;;;;;;5052865;28;20044;-71
2022/06/04 08:33:45;;;;;;;5.90;3.60;;;;;;;;;;5052474;28;20044;-71
2022/06/04 08:36:13;;;;;;;8.00;4.10;;;16.40;99.90;;;;;;5050614;28;20041;-71
2022/06/04 08:38:39;;;;;;;7.03;3.67;;;16.50;99.90;;;;;;5049722;28;20044;-70
2022/06/04 08:41:17;;;;;;;8.02;4.10;;;16.40;99.90;;;;;;5050087;28;20037;-73
2022/06/04 08:43:55;;;;;;;7.97;4.05;;;16.80;99.90;;;;;;5050770;28;20502;-71
2022/06/04 08:46:24;;;;;;;8.20;3.78;;;16.30;99.90;;;;;;5035110;28;20047;-70
2022/06/04 08:48:50;;;;;;;8.27;4.20;;;15.90;99.90;;;;;;5051495;28;20112;-70
2022/06/04 08:51:25;;;;;;;6.28;4.10;;;16.40;99.90;;;;;;5050320;28;20076;-70
2022/06/04 08:53:57;;;;;;;8.35;3.78;;;16.60;99.90;;;;;;5052363;28;20067;-69
2022/06/04 08:59:24;;;;;;;9.38;4.30;;;16.60;99.90;;;;;;5050424;28;20044;-70
2022/06/04 09:01:56;;;;;;;9.13;4.78;;;16.90;99.90;;;;;;5050673;28;20041;-70
2022/06/04 09:04:27;;;;;;;5.82;3.80;;;16.70;99.90;;;;;;5034453;28;20037;-70
2022/06/04 09:07:04;;;;;;;6.63;3.90;;;16.80;99.90;;;;;;5034450;28;20496;-70
2022/06/04 09:09:45;;;;;;;8.05;3.60;;;16.80;99.90;;;;;;5051722;28;20041;-70
2022/06/04 09:12:36;;;;;;;6.32;4.60;;;17.10;99.90;;;;;;5052442;28;20045;-70
2022/06/04 09:15:07;;;;;;;7.18;3.67;;;16.80;99.90;;;;;;5034207;28;20090;-70
2022/06/04 09:17:41;;;;;;;8.32;3.65;;;17.00;99.90;;;;;;5050980;28;20047;-70
2022/06/04 09:20:26;;;;;;;12.65;4.68;;;16.90;99.90;;;;;;5050320;28;20642;-70
2022/06/04 09:22:57;;;;;;;6.50;4.20;;;16.80;99.90;;;;;;5052197;28;20037;-70
2022/06/04 09:25:27;;;;;;;7.05;4.60;;;17.10;99.90;;;;;;5051782;28;20510;-70
2022/06/04 09:28:09;;;;;;;7.72;3.85;;;17.50;99.90;;;;;;5050723;28;20037;-70
2022/06/04 09:30:45;;;;;;;8.23;3.97;;;17.70;99.90;;;;;;5033331;28;20498;-70
2022/06/04 09:33:42;;;;;;;5.82;3.65;;;17.50;99.90;;;;;;5051949;28;20530;-70
2022/06/04 09:36:11;;;;;;;4.68;3.45;;;17.80;99.90;;;;;;5033864;28;20076;-70
2022/06/04 09:38:37;;;;;;;11.85;4.28;;;18.60;99.90;;;;;;5050603;28;20083;-70
2022/06/04 09:41:05;;;;;;;6.35;3.55;;;17.80;99.90;;;;;;5050912;28;20076;-69
2022/06/04 09:43:31;;;;;;;6.75;4.40;;;18.20;99.90;;;;;;5051817;28;20037;-70
2022/06/04 09:46:02;;;;;;;6.15;3.40;;;18.10;99.90;;;;;;5049902;28;20459;-69
2022/06/04 09:48:32;;;;;;;5.57;3.53;;;18.20;99.90;;;;;;5049541;28;20040;-70
2022/06/04 09:51:02;;;;;;;6.53;3.78;;;18.00;99.90;;;;;;5044091;28;20041;-70
2022/06/04 09:53:32;;;;;;;4.25;2.97;;;18.10;99.90;;;;;;5049742;28;20063;-69
2022/06/04 09:56:05;;;;;;;5.68;3.00;;;18.00;99.90;;;;;;5051600;28;20040;-70
2022/06/04 09:58:34;;;;;;;6.70;4.03;;;18.50;99.90;;;;;;5051543;28;20529;-70
2022/06/04 10:01:06;;;;;;;6.78;3.70;;;17.90;99.90;;;;;;5049531;28;20041;-70
2022/06/04 10:03:38;;;;;;;8.05;3.80;;;17.90;99.90;;;;;;5033821;28;20044;-69
2022/06/04 10:06:09;;;;;;;15.75;4.47;;;18.30;99.90;;;;;;5051681;28;20064;-69
2022/06/04 10:11:23;;;;;;;8.57;3.28;;;18.40;99.90;;;;;;5049927;28;20132;-69
2022/06/04 10:13:52;;;;;;;4.65;3.50;;;18.50;99.90;;;;;;5051707;28;20045;-70
2022/06/04 10:16:28;;;;;;;8.00;3.50;;;18.40;99.90;;;;;;5050332;28;20481;-70
2022/06/04 10:19:00;;;;;;;5.10;3.15;;;19.90;99.90;;;;;;5051172;28;20120;-69
2022/06/04 10:21:34;;;;;;;7.18;3.22;;;18.40;99.90;;;;;;5050674;28;20045;-68
2022/06/04 10:24:04;;;;;;;4.90;3.38;;;18.60;99.90;;;;;;5050325;28;20029;-70
2022/06/04 10:26:45;;;;;;;4.85;2.85;;;19.10;99.90;;;;;;5049637;28;20127;-69
2022/06/04 10:29:10;;;;;;;6.00;3.08;;;18.50;99.90;;;;;;5048038;28;20055;-68
2022/06/04 10:32:11;;;;;;;6.57;4.15;;;18.40;99.90;;;;;;5049467;28;20041;-69
2022/06/04 10:35:22;;;;;;;5.40;3.22;;;18.50;99.90;;;;;;4998911;28;20073;-69
2022/06/04 10:37:48;;;;;;;10.77;3.72;;;18.80;99.90;;;;;;4950397;28;20042;-69
2022/06/04 10:40:23;;;;;;;4.65;3.42;;;19.70;99.90;;;;;;5033511;28;20049;-69
2022/06/04 10:42:57;;;;;;;6.18;3.20;;;18.90;99.90;;;;;;5033741;28;20128;-72
2022/06/04 10:45:29;;;;;;;5.20;2.88;;;18.90;99.90;;;;;;5050084;28;20562;-66
2022/06/04 10:48:01;;;;;;;6.53;3.28;;;18.40;99.90;;;;;;5050090;28;20041;-73
2022/06/04 10:51:25;;;;;;;5.50;2.90;;;18.00;99.90;;;;;;5049564;28;20124;-73
2022/06/04 10:53:50;;;;;;;4.53;3.20;;;18.20;99.90;;;;;;5050177;28;20053;-73
2022/06/04 10:56:21;;;;;;;5.63;2.75;;;18.70;99.90;;;;;;5023622;28;20057;-73
2022/06/04 10:59:02;;;;;;;4.38;3.03;;;18.70;99.90;;;;;;5050207;28;20056;-73
2022/06/04 11:02:13;;;;;;;7.28;3.70;;;19.90;99.90;;;;;;5033084;28;20116;-73
2022/06/04 11:04:45;;;;;;;3.72;2.47;;;18.70;99.90;;;;;;5013794;28;20044;-73
2022/06/04 11:07:26;;;;;;;3.90;2.77;;;19.70;99.90;;;;;;5034632;28;20521;-73
2022/06/04 11:09:53;;;;;;;7.55;3.17;;;19.10;99.90;;;;;;5054031;28;20566;-73
2022/06/04 11:12:28;;;;;;;7.68;3.17;;;18.90;99.90;;;;;;5054657;28;20037;-73
2022/06/04 11:15:03;;;;;;;7.82;2.95;;;19.20;99.90;;;;;;5036719;28;20048;-73
2022/06/04 11:17:44;;;;;;;5.05;2.80;;;19.50;99.90;;;;;;5053397;28;20048;-72
2022/06/04 11:20:18;;;;;;;5.45;3.45;;;19.30;99.90;;;;;;5052439;28;20049;-70
2022/06/04 11:23:17;;;;;;;7.28;3.97;;;19.20;99.90;;;;;;5037006;28;20037;-73
2022/06/04 11:25:48;;;;;;;7.00;3.47;;;19.20;99.90;;;;;;5054532;28;20076;-73
2022/06/04 11:28:19;;;;;;;4.95;3.80;;;20.30;99.90;;;;;;5035931;28;20406;-73
2022/06/04 11:30:57;;;;;;;5.55;3.30;;;18.60;99.90;;;;;;5034737;28;20478;-73
2022/06/04 11:33:37;;;;;;;5.50;3.28;;;19.40;99.90;;;;;;5051729;28;20039;-72
2022/06/04 11:36:27;;;;;;;6.55;3.00;;;18.60;99.90;;;;;;5050504;28;20039;-73
2022/06/04 11:39:24;;;;;;;4.07;3.10;;;18.40;99.90;;;;;;5050682;28;20048;-71
2022/06/04 11:42:08;;;;;;;5.18;3.05;;;18.80;99.90;;;;;;5021370;28;20049;-72
2022/06/04 11:44:53;;;;;;;6.38;3.33;;;18.70;99.90;;;;;;5052593;28;20041;-72
2022/06/04 11:47:49;;;;;;;8.88;3.17;;;18.70;99.90;;;;;;5052853;28;20045;-72
2022/06/04 11:50:42;;;;;;;5.35;3.20;;;19.10;99.90;;;;;;5053264;28;20045;-72
2022/06/04 11:53:17;;;;;;;6.32;4.20;;;18.50;99.90;;;;;;5052481;28;20033;-72
2022/06/04 11:55:56;;;;;;;15.07;4.50;;;18.90;99.90;;;;;;5052341;28;20044;-71
2022/06/04 11:58:49;;;;;;;6.50;3.33;;;18.70;99.90;;;;;;5035991;28;20151;-72
2022/06/04 12:01:28;;;;;;;9.60;4.17;;;19.30;99.90;;;;;;5044447;28;20051;-72
2022/06/04 12:04:01;;;;;;;5.28;3.40;;;19.40;99.90;;;;;;5036720;28;20511;-72
2022/06/04 12:06:33;;;;;;;10.02;3.72;;;20.00;99.90;;;;;;5037839;28;21319;-72
2022/06/04 12:09:10;;;;;;;12.63;3.67;;;19.10;99.90;;;;;;5040895;28;20033;-72
2022/06/04 12:12:00;;;;;;;7.38;3.50;;;19.50;99.90;;;;;;5025585;28;20095;-72
2022/06/04 12:14:36;;;;;;;12.18;4.20;;;20.20;99.90;;;;;;5049146;28;20045;-72
2022/06/04 12:17:30;;;;;;;6.20;3.03;;;19.00;99.90;;;;;;5023924;28;20399;-73
2022/06/04 12:26:24;;;;;;;8.75;3.47;;;19.20;99.90;;;;;;5058888;28;20044;-72
2022/06/04 12:28:51;;;;;;;7.28;3.25;;;19.30;99.90;;;;;;5036112;28;20098;-73
2022/06/04 12:31:36;;;;;;;10.23;4.60;;;19.50;99.90;;;;;;5040855;28;20499;-72
2022/06/04 12:34:22;;;;;;;8.18;3.97;;;19.30;99.90;;;;;;5044012;28;20411;-73
2022/06/04 12:36:53;;;;;;;14.15;3.83;;;19.40;99.90;;;;;;5044287;28;20474;-74
2022/06/04 12:39:29;;;;;;;9.48;3.60;;;19.20;99.90;;;;;;5047145;28;20104;-72
2022/06/04 12:41:59;;;;;;;10.18;4.00;;;19.30;99.90;;;;;;5040780;28;20048;-72
2022/06/04 12:44:31;;;;;;;4.45;3.22;;;19.20;99.90;;;;;;5056723;28;20499;-72
2022/06/04 12:47:11;;;;;;;8.60;3.72;;;19.90;99.90;;;;;;5047373;28;20033;-72
2022/06/04 12:49:42;;;;;;;6.63;3.50;;;19.20;99.90;;;;;;5018526;28;20068;-72
2022/06/04 12:52:29;;;;;;;12.05;4.07;;;19.30;99.90;;;;;;5038769;28;20674;-71
2022/06/04 12:55:16;;;;;;;5.70;3.15;;;19.40;99.90;;;;;;5049190;28;20517;-72
2022/06/04 12:57:41;;;;;;;8.45;3.95;;;19.00;99.90;;;;;;5037079;28;20538;-72
2022/06/04 13:00:13;;;;;;;6.32;3.92;;;19.70;99.90;;;;;;5015220;28;20132;-71
2022/06/04 13:02:42;;;;;;;10.85;4.20;;;19.50;99.90;;;;;;5045870;28;20044;-72
2022/06/04 13:05:22;;;;;;;8.13;4.35;;;18.90;99.90;;;;;;5047075;28;20068;-71
2022/06/04 13:08:07;;;;;;;6.28;4.03;;;19.20;99.90;;;;;;5045248;28;20033;-72
2022/06/04 13:11:00;;;;;;;8.02;4.95;;;19.60;99.90;;;;;;5029516;28;20091;-71
2022/06/04 13:13:36;;;;;;;;;;;19.80;99.90;;;;;;5038441;28;20045;-71
2022/06/04 13:16:14;;;;;;;8.63;4.82;;;19.90;99.90;;;;;;5040404;28;19925;-72
2022/06/04 13:18:42;;;;;;;9.52;3.88;;;19.50;99.90;;;;;;5035404;28;20033;-72
2022/06/04 13:21:20;;;;;;;12.63;4.00;;;20.10;99.90;;;;;;5036447;28;20112;-71
2022/06/04 13:23:55;;;;;;;8.63;4.40;;;19.60;99.90;;;;;;5047622;28;20437;-71
2022/06/04 13:26:42;;;;;;;9.13;3.97;;;19.80;99.90;;;;;;5033694;28;20483;-71
2022/06/04 13:29:29;;;;;;;6.90;3.60;;;19.50;99.90;;;;;;5047685;28;20037;-71
2022/06/04 13:31:57;;;;;;;7.97;3.90;;;19.80;99.90;;;;;;5039856;28;20041;-71
2022/06/04 13:36:58;;;;;;;7.10;3.55;;;19.80;99.90;;;;;;5046702;28;20056;-70
2022/06/04 13:39:25;;;;;;;12.82;4.05;;;19.70;99.90;;;;;;5042019;28;20033;-70
2022/06/04 13:42:09;;;;;;;7.10;4.20;;;19.90;99.90;;;;;;5055013;28;20124;-67
2022/06/04 13:44:40;;;;;;;6.88;3.90;;;20.10;99.90;;;;;;5048076;28;20396;-68
2022/06/04 13:47:16;;;;;;;8.82;3.63;;;20.00;99.90;;;;;;5029994;28;20041;-69